createdAt,value
2022-12-28T10:51:00.407Z,5.13
2022-12-28T10:52:00.413Z,5.13
2022-12-28T10:53:00.625Z,5.16
2022-12-28T10:54:00.427Z,5.22
2022-12-28T10:55:07.974Z,5.25
2022-12-28T10:56:00.249Z,5.22
2022-12-28T10:57:00.254Z,5.22
2022-12-28T10:58:28.567Z,5.25
2022-12-28T10:59:00.300Z,5.23
2022-12-28T11:00:00.400Z,5.16
2022-12-28T11:01:00.442Z,5.15
2022-12-28T11:02:00.285Z,5.18
2022-12-28T11:03:00.299Z,5.23
2022-12-28T11:04:00.467Z,5.18
2022-12-28T11:05:00.256Z,5.10
2022-12-28T11:06:00.126Z,5.08
2022-12-28T11:07:00.388Z,5.02
2022-12-28T11:08:00.104Z,5.04
2022-12-28T11:09:00.248Z,5.10
2022-12-28T11:10:00.142Z,5.05
2022-12-28T11:11:00.259Z,5.02
2022-12-28T11:12:00.084Z,4.98
2022-12-28T11:13:00.245Z,5.00
2022-12-28T11:14:00.031Z,5.04
2022-12-28T11:15:00.069Z,5.08
2022-12-28T11:16:00.160Z,5.07
2022-12-28T11:17:00.010Z,5.02
2022-12-28T11:18:00.010Z,5.01
2022-12-28T11:18:59.966Z,4.98
2022-12-28T11:20:00.108Z,4.97
2022-12-28T11:20:59.936Z,4.94
2022-12-28T11:21:59.958Z,4.92
2022-12-28T11:22:59.935Z,4.92
2022-12-28T11:23:59.895Z,4.94
2022-12-28T11:24:59.875Z,4.92
2022-12-28T11:25:59.896Z,4.90
2022-12-28T11:26:59.853Z,4.94
2022-12-28T11:27:59.873Z,4.94
2022-12-28T11:28:59.872Z,4.95
2022-12-28T11:29:59.811Z,5.02
2022-12-28T11:30:59.991Z,5.05
2022-12-28T11:32:00.006Z,5.01
2022-12-28T11:32:59.761Z,5.08
2022-12-28T11:33:59.725Z,5.15
2022-12-28T11:34:59.712Z,5.20
2022-12-28T11:36:00.535Z,5.34
2022-12-28T11:36:59.766Z,5.36
2022-12-28T11:37:59.710Z,5.38
2022-12-28T11:38:59.912Z,5.40
2022-12-28T11:39:59.685Z,5.41
2022-12-28T11:40:59.700Z,5.47
2022-12-28T11:42:59.657Z,5.56
2022-12-28T11:43:59.642Z,5.55
2022-12-28T11:44:59.645Z,5.56
2022-12-28T11:45:59.693Z,5.56
2022-12-28T11:46:59.621Z,5.49
2022-12-28T11:47:59.860Z,5.46
2022-12-28T11:48:59.612Z,5.40
2022-12-28T11:49:59.558Z,5.33
2022-12-28T11:50:59.621Z,5.26
2022-12-28T11:51:59.524Z,5.28
2022-12-28T11:52:59.587Z,5.26
2022-12-28T11:53:59.489Z,5.26
2022-12-28T11:54:59.610Z,5.31
2022-12-28T11:55:59.475Z,5.33
2022-12-28T11:56:59.454Z,5.36
2022-12-28T11:57:59.471Z,5.36
2022-12-28T11:58:59.540Z,5.33
2022-12-28T11:59:59.410Z,5.36
2022-12-28T12:00:59.623Z,5.40
2022-12-28T12:01:59.524Z,5.44
2022-12-28T12:02:59.383Z,5.51
2022-12-28T12:03:59.372Z,5.49
2022-12-28T12:04:59.680Z,5.37
2022-12-28T12:05:59.424Z,5.33
2022-12-28T12:06:59.325Z,5.28
2022-12-28T12:07:59.455Z,5.23
2022-12-28T12:08:59.295Z,5.12
2022-12-28T12:09:59.369Z,5.02
2022-12-28T12:10:59.223Z,4.95
2022-12-28T12:11:59.435Z,4.90
2022-12-28T12:12:59.247Z,4.90
2022-12-28T12:13:59.245Z,4.97
2022-12-28T12:14:59.315Z,5.01
2022-12-28T12:15:59.218Z,5.02
2022-12-28T12:16:59.378Z,5.01
2022-12-28T12:17:59.180Z,5.02
2022-12-28T12:18:59.151Z,5.07
2022-12-28T12:19:59.161Z,5.04
2022-12-28T12:20:59.206Z,5.04
2022-12-28T12:21:59.122Z,5.04
2022-12-28T12:22:59.148Z,5.05
2022-12-28T12:23:59.053Z,5.05
2022-12-28T12:24:59.085Z,5.07
2022-12-28T12:25:59.366Z,5.08
2022-12-28T12:26:59.055Z,5.07
2022-12-28T12:27:59.035Z,5.08
2022-12-28T12:28:59.079Z,5.12
2022-12-28T12:29:59.001Z,5.10
2022-12-28T12:30:59.043Z,5.12
2022-12-28T12:31:59.052Z,5.12
2022-12-28T12:32:58.917Z,5.16
2022-12-28T12:33:58.945Z,5.12
2022-12-28T12:34:58.930Z,5.05
2022-12-28T12:35:58.942Z,5.02
2022-12-28T12:36:59.045Z,5.01
2022-12-28T12:37:58.919Z,4.97
2022-12-28T12:38:58.921Z,4.92
2022-12-28T12:39:58.876Z,4.84
2022-12-28T12:40:58.920Z,4.79
2022-12-28T12:41:58.856Z,4.76
2022-12-28T12:42:59.027Z,4.75
2022-12-28T12:43:58.837Z,4.74
2022-12-28T12:44:58.975Z,4.70
2022-12-28T12:45:58.849Z,4.66
2022-12-28T12:47:05.236Z,4.66
2022-12-28T12:47:59.141Z,4.67
2022-12-28T12:48:58.731Z,4.67
2022-12-28T12:49:58.800Z,4.70
2022-12-28T12:50:58.707Z,4.71
2022-12-28T12:51:58.720Z,4.76
2022-12-28T12:52:58.713Z,4.84
2022-12-28T12:53:58.765Z,4.95
2022-12-28T12:54:58.752Z,5.05
2022-12-28T12:55:58.687Z,5.15
2022-12-28T12:56:58.664Z,5.19
2022-12-28T12:57:58.673Z,5.22
2022-12-28T12:58:58.669Z,5.22
2022-12-28T12:59:58.623Z,5.22
2022-12-28T13:00:58.715Z,5.25
2022-12-28T13:01:58.753Z,5.28
2022-12-28T13:02:58.603Z,5.31
2022-12-28T13:03:58.660Z,5.33
2022-12-28T13:04:58.561Z,5.36
2022-12-28T13:05:58.544Z,5.37
2022-12-28T13:06:58.511Z,5.41
2022-12-28T13:07:58.529Z,5.46
2022-12-28T13:09:04.774Z,5.47
2022-12-28T13:09:58.579Z,5.49
2022-12-28T13:10:58.515Z,5.51
2022-12-28T13:11:58.469Z,5.59
2022-12-28T13:12:59.149Z,5.61
2022-12-28T13:13:58.503Z,5.62
2022-12-28T13:14:58.967Z,5.62
2022-12-28T13:15:58.443Z,5.59
2022-12-28T13:16:58.444Z,5.59
2022-12-28T13:18:11.203Z,5.62
2022-12-28T13:18:58.399Z,5.65
2022-12-28T13:19:58.453Z,5.70
2022-12-28T13:20:58.342Z,5.73
2022-12-28T13:21:58.471Z,5.79
2022-12-28T13:22:58.641Z,5.84
2022-12-28T13:23:58.486Z,5.87
2022-12-28T13:24:58.410Z,5.88
2022-12-28T13:25:58.497Z,5.83
2022-12-28T13:26:58.326Z,5.84
2022-12-28T13:27:58.258Z,5.90
2022-12-28T13:28:58.336Z,5.88
2022-12-28T13:29:58.201Z,5.84
2022-12-28T13:30:58.440Z,5.84
2022-12-28T13:31:58.258Z,5.80
2022-12-28T13:32:58.331Z,5.80
2022-12-28T13:33:58.483Z,5.77
2022-12-28T13:34:58.172Z,5.77
2022-12-28T13:35:58.492Z,5.73
2022-12-28T13:36:58.508Z,5.70
2022-12-28T13:37:58.162Z,5.69
2022-12-28T13:38:58.335Z,5.70
2022-12-28T13:39:58.182Z,5.73
2022-12-28T13:40:58.327Z,5.73
2022-12-28T13:41:58.170Z,5.76
2022-12-28T13:42:58.337Z,5.73
2022-12-28T13:43:58.169Z,5.73
2022-12-28T13:44:58.045Z,5.74
2022-12-28T13:45:58.170Z,5.79
2022-12-28T13:46:58.072Z,5.79
2022-12-28T13:47:58.162Z,5.74
2022-12-28T13:48:58.066Z,5.74
2022-12-28T13:49:58.175Z,5.73
2022-12-28T13:50:58.119Z,5.70
2022-12-28T13:51:57.996Z,5.67
2022-12-28T13:52:58.170Z,5.65
2022-12-28T13:53:58.150Z,5.59
2022-12-28T13:54:58.041Z,5.58
2022-12-28T13:55:58.202Z,5.58
2022-12-28T13:57:20.527Z,5.56
2022-12-28T13:57:59.872Z,5.54
2022-12-28T13:58:58.037Z,5.54
2022-12-28T13:59:57.984Z,5.52
2022-12-28T14:00:58.088Z,5.46
2022-12-28T14:01:58.253Z,5.41
2022-12-28T14:02:58.000Z,5.37
2022-12-28T14:03:58.824Z,5.34
2022-12-28T14:04:57.950Z,5.34
2022-12-28T14:05:57.992Z,5.31
2022-12-28T14:06:57.882Z,5.31
2022-12-28T14:07:57.994Z,5.25
2022-12-28T14:09:03.756Z,5.16
2022-12-28T14:09:57.895Z,5.08
2022-12-28T14:10:58.020Z,5.04
2022-12-28T14:11:57.857Z,4.97
2022-12-28T14:12:57.962Z,4.95
2022-12-28T14:13:57.719Z,4.97
2022-12-28T14:14:57.815Z,4.97
2022-12-28T14:15:58.033Z,5.04
2022-12-28T14:16:57.812Z,5.02
2022-12-28T14:17:57.855Z,5.02
2022-12-28T14:18:58.018Z,5.04
2022-12-28T14:19:58.111Z,5.00
2022-12-28T14:20:57.863Z,4.97
2022-12-28T14:21:58.171Z,4.97
2022-12-28T14:22:58.035Z,4.89
2022-12-28T14:23:57.633Z,4.86
2022-12-28T14:24:57.530Z,4.83
2022-12-28T14:25:57.671Z,4.82
2022-12-28T14:26:57.691Z,4.75
2022-12-28T14:27:57.766Z,4.68
2022-12-28T14:28:57.771Z,4.64
2022-12-28T14:29:57.499Z,4.60
2022-12-28T14:30:57.938Z,4.50
2022-12-28T14:31:57.585Z,4.42
2022-12-28T14:32:58.009Z,4.36
2022-12-28T14:33:57.387Z,4.28
2022-12-28T14:34:57.360Z,4.21
2022-12-28T14:35:57.533Z,4.12
2022-12-28T14:36:57.367Z,4.06
2022-12-28T14:37:57.632Z,4.06
2022-12-28T14:39:02.877Z,4.02
2022-12-28T14:39:57.548Z,3.96
2022-12-28T14:40:57.371Z,3.89
2022-12-28T14:41:57.302Z,3.84
2022-12-28T14:42:57.252Z,3.84
2022-12-28T14:43:57.652Z,3.81
2022-12-28T14:44:57.357Z,3.81
2022-12-28T15:00:16.196Z,3.78
2022-12-28T15:00:21.261Z,3.77
2022-12-28T15:00:26.359Z,3.06
2022-12-28T15:01:26.580Z,3.00
2022-12-28T15:02:26.761Z,2.90
2022-12-28T15:03:26.364Z,2.85
2022-12-28T15:04:26.334Z,2.83
2022-12-28T15:05:26.547Z,2.73
2022-12-28T15:06:26.218Z,2.75
2022-12-28T15:07:26.235Z,2.77
2022-12-28T15:08:26.320Z,2.80
2022-12-28T15:09:26.205Z,2.83
2022-12-28T15:10:26.333Z,2.77
2022-12-28T15:11:26.244Z,2.76
2022-12-28T15:12:26.330Z,2.69
2022-12-28T15:13:26.141Z,2.61
2022-12-28T15:14:26.139Z,2.55
2022-12-28T15:15:26.152Z,2.46
2022-12-28T15:16:26.152Z,2.39
2022-12-28T15:17:33.131Z,2.30
2022-12-28T15:18:26.081Z,2.21
2022-12-28T15:19:26.077Z,2.10
2022-12-28T15:20:26.045Z,2.05
2022-12-28T15:21:26.027Z,1.95
2022-12-28T15:22:26.098Z,1.89
2022-12-28T15:23:26.017Z,1.82
2022-12-28T15:24:33.338Z,1.78
2022-12-28T15:25:25.959Z,1.71
2022-12-28T15:26:25.984Z,1.64
2022-12-28T15:27:26.000Z,1.61
2022-12-28T15:28:25.954Z,1.52
2022-12-28T15:29:47.473Z,1.49
2022-12-28T15:30:29.186Z,1.43
2022-12-28T15:31:25.984Z,1.39
2022-12-28T15:32:25.938Z,1.39
2022-12-28T15:33:25.884Z,1.36
2022-12-28T15:34:25.885Z,1.32
2022-12-28T15:35:25.866Z,1.30
2022-12-28T15:36:25.837Z,1.24
2022-12-28T15:37:25.976Z,1.14
2022-12-28T15:38:25.791Z,1.13
2022-12-28T15:39:25.779Z,1.12
2022-12-28T15:40:25.797Z,1.04
2022-12-28T15:41:25.748Z,1.00
2022-12-28T15:42:25.736Z,0.96
2022-12-28T15:43:25.852Z,0.96
2022-12-28T15:44:25.751Z,0.94
2022-12-28T15:45:25.724Z,0.89
2022-12-28T15:46:25.856Z,0.85
2022-12-28T15:47:25.692Z,0.85
2022-12-28T15:48:25.738Z,0.78
2022-12-28T15:49:25.740Z,0.74
2022-12-28T15:50:25.623Z,0.71
2022-12-28T15:51:25.620Z,0.64
2022-12-28T15:52:25.665Z,0.58
2022-12-28T15:53:25.597Z,0.55
2022-12-28T15:54:25.657Z,0.48
2022-12-28T15:55:25.578Z,0.44
2022-12-28T15:56:25.613Z,0.40
2022-12-28T15:57:25.618Z,0.39
2022-12-28T15:58:25.542Z,0.34
2022-12-28T15:59:25.694Z,0.36
2022-12-28T16:00:25.652Z,0.34
2022-12-28T16:01:25.630Z,0.30
2022-12-28T16:02:25.748Z,0.27
2022-12-28T16:03:25.536Z,0.23
2022-12-28T16:04:25.518Z,0.18
2022-12-28T16:05:25.427Z,0.15
2022-12-28T16:06:25.453Z,0.08
2022-12-28T16:07:25.455Z,0.06
2022-12-28T16:08:25.412Z,0.02
2022-12-28T16:09:25.465Z,-0.03
2022-12-28T16:10:25.410Z,-0.02
2022-12-28T16:11:25.348Z,-0.02
2022-12-28T16:12:25.440Z,-0.06
2022-12-28T16:13:25.328Z,-0.06
2022-12-28T16:14:25.359Z,-0.09
2022-12-28T16:15:25.383Z,-0.15
2022-12-28T16:16:25.376Z,-0.18
2022-12-28T16:17:25.329Z,-0.23
2022-12-28T16:18:25.281Z,-0.24
2022-12-28T16:19:25.303Z,-0.28
2022-12-28T16:20:25.369Z,-0.31
2022-12-28T16:21:25.581Z,-0.35
2022-12-28T16:22:25.414Z,-0.36
2022-12-28T16:23:25.191Z,-0.38
2022-12-28T16:24:25.280Z,-0.42
2022-12-28T16:25:25.287Z,-0.44
2022-12-28T16:26:25.262Z,-0.46
2022-12-28T16:27:25.256Z,-0.46
2022-12-28T16:28:25.103Z,-0.49
2022-12-28T16:29:25.228Z,-0.49
2022-12-28T16:30:25.155Z,-0.53
2022-12-28T16:32:52.339Z,-0.56
2022-12-28T16:32:57.387Z,-0.60
2022-12-28T16:33:57.392Z,-0.64
2022-12-28T16:34:57.360Z,-0.66
2022-12-28T16:35:59.815Z,-0.64
2022-12-28T16:36:57.374Z,-0.67
2022-12-28T16:37:57.336Z,-0.69
2022-12-28T16:38:57.464Z,-0.70
2022-12-28T16:39:57.239Z,-0.69
2022-12-28T16:40:57.414Z,-0.67
2022-12-28T16:41:57.198Z,-0.67
2022-12-28T16:42:57.274Z,-0.69
2022-12-28T16:43:57.267Z,-0.69
2022-12-28T16:44:57.244Z,-0.69
2022-12-28T16:45:57.261Z,-0.69
2022-12-28T16:46:57.242Z,-0.72
2022-12-28T16:47:57.144Z,-0.77
2022-12-28T16:48:57.436Z,-0.78
2022-12-28T16:49:57.194Z,-0.81
2022-12-28T16:50:57.208Z,-0.85
2022-12-28T16:51:57.228Z,-0.85
2022-12-28T16:52:57.372Z,-0.85
2022-12-28T16:53:57.167Z,-0.85
2022-12-28T16:54:57.210Z,-0.87
2022-12-28T16:55:57.075Z,-0.87
2022-12-28T16:56:57.113Z,-0.87
2022-12-28T16:57:57.083Z,-0.89
2022-12-28T16:58:57.012Z,-0.91
2022-12-28T16:59:57.038Z,-0.93
2022-12-28T17:00:57.230Z,-0.93
2022-12-28T17:01:57.417Z,-0.94
2022-12-28T17:02:57.127Z,-0.89
2022-12-28T17:04:03.432Z,-0.91
2022-12-28T17:04:57.026Z,-0.89
2022-12-28T17:05:59.159Z,-0.93
2022-12-28T17:06:57.256Z,-0.96
2022-12-28T17:07:56.974Z,-0.99
2022-12-28T17:08:56.934Z,-0.99
2022-12-28T17:09:56.967Z,-0.97
2022-12-28T17:10:56.958Z,-0.94
2022-12-28T17:11:57.933Z,-0.96
2022-12-28T17:12:56.908Z,-0.94
2022-12-28T17:13:56.915Z,-0.97
2022-12-28T17:15:01.827Z,-0.99
2022-12-28T17:15:57.007Z,-1.00
2022-12-28T17:16:56.894Z,-0.97
2022-12-28T17:17:56.933Z,-1.00
2022-12-28T17:18:56.914Z,-1.06
2022-12-28T17:19:56.790Z,-1.09
2022-12-28T17:21:00.459Z,-1.11
2022-12-28T17:21:56.808Z,-1.14
2022-12-28T17:22:56.792Z,-1.17
2022-12-28T17:23:56.883Z,-1.18
2022-12-28T17:24:56.722Z,-1.18
2022-12-28T17:25:56.670Z,-1.19
2022-12-28T17:26:59.276Z,-1.17
2022-12-28T17:27:56.762Z,-1.17
2022-12-28T17:28:56.818Z,-1.18
2022-12-28T17:29:56.686Z,-1.21
2022-12-28T17:30:56.657Z,-1.22
2022-12-28T17:31:56.787Z,-1.24
2022-12-28T17:32:56.644Z,-1.24
2022-12-28T17:33:56.892Z,-1.27
2022-12-28T17:34:57.090Z,-1.29
2022-12-28T17:35:56.614Z,-1.33
2022-12-28T17:36:56.650Z,-1.35
2022-12-28T17:37:56.889Z,-1.38
2022-12-28T17:38:56.641Z,-1.40
2022-12-28T17:39:56.525Z,-1.40
2022-12-28T17:40:56.566Z,-1.39
2022-12-28T17:41:56.591Z,-1.42
2022-12-28T17:42:56.578Z,-1.39
2022-12-28T17:43:56.560Z,-1.40
2022-12-28T17:44:56.538Z,-1.43
2022-12-28T17:45:56.546Z,-1.46
2022-12-28T17:46:56.515Z,-1.48
2022-12-28T17:47:56.577Z,-1.50
2022-12-28T17:48:56.499Z,-1.48
2022-12-28T17:49:56.478Z,-1.46
2022-12-28T17:50:56.391Z,-1.46
2022-12-28T17:51:56.493Z,-1.45
2022-12-28T17:52:56.418Z,-1.46
2022-12-28T17:53:56.418Z,-1.51
2022-12-28T17:54:56.294Z,-1.50
2022-12-28T17:55:56.423Z,-1.48
2022-12-28T17:56:56.315Z,-1.50
2022-12-28T17:57:56.409Z,-1.50
2022-12-28T17:58:56.303Z,-1.46
2022-12-28T17:59:56.380Z,-1.50
2022-12-28T18:00:56.571Z,-1.51
2022-12-28T18:01:56.562Z,-1.51
2022-12-28T18:02:56.634Z,-1.53
2022-12-28T18:03:56.427Z,-1.48
2022-12-28T18:04:56.497Z,-1.46
2022-12-28T18:05:56.371Z,-1.48
2022-12-28T18:06:56.271Z,-1.43
2022-12-28T18:07:56.224Z,-1.39
2022-12-28T18:08:56.176Z,-1.39
2022-12-28T18:09:56.252Z,-1.38
2022-12-28T18:10:56.156Z,-1.45
2022-12-28T18:11:56.231Z,-1.48
2022-12-28T18:12:56.136Z,-1.45
2022-12-28T18:13:56.153Z,-1.40
2022-12-28T18:14:56.111Z,-1.35
2022-12-28T18:15:56.281Z,-1.35
2022-12-28T18:16:56.316Z,-1.35
2022-12-28T18:17:56.063Z,-1.38
2022-12-28T18:18:56.089Z,-1.43
2022-12-28T18:19:56.164Z,-1.43
2022-12-28T18:20:56.066Z,-1.45
2022-12-28T18:21:56.015Z,-1.50
2022-12-28T18:22:56.076Z,-1.50
2022-12-28T18:23:56.036Z,-1.48
2022-12-28T18:24:55.984Z,-1.40
2022-12-28T18:25:55.892Z,-1.42
2022-12-28T18:26:55.975Z,-1.43
2022-12-28T18:27:55.994Z,-1.45
2022-12-28T18:28:55.938Z,-1.45
2022-12-28T18:29:55.883Z,-1.46
2022-12-28T18:31:01.482Z,-1.53
2022-12-28T18:31:55.896Z,-1.57
2022-12-28T18:32:55.916Z,-1.58
2022-12-28T18:33:55.876Z,-1.61
2022-12-28T18:34:55.872Z,-1.63
2022-12-28T18:35:55.884Z,-1.63
2022-12-28T18:36:55.851Z,-1.63
2022-12-28T18:37:55.863Z,-1.64
2022-12-28T18:38:55.807Z,-1.66
2022-12-28T18:39:55.812Z,-1.69
2022-12-28T18:40:55.768Z,-1.69
2022-12-28T18:41:55.795Z,-1.71
2022-12-28T18:42:55.859Z,-1.71
2022-12-28T18:43:55.778Z,-1.76
2022-12-28T18:44:55.728Z,-1.76
2022-12-28T18:45:55.789Z,-1.78
2022-12-28T18:46:55.978Z,-1.76
2022-12-28T18:47:55.674Z,-1.75
2022-12-28T18:48:55.734Z,-1.71
2022-12-28T18:49:55.724Z,-1.68
2022-12-28T18:50:55.592Z,-1.71
2022-12-28T18:51:55.704Z,-1.72
2022-12-28T18:52:55.593Z,-1.69
2022-12-28T18:53:55.647Z,-1.68
2022-12-28T18:54:55.688Z,-1.68
2022-12-28T18:55:55.605Z,-1.66
2022-12-28T18:56:55.590Z,-1.68
2022-12-28T18:57:55.575Z,-1.71
2022-12-28T18:58:55.637Z,-1.71
2022-12-28T18:59:55.630Z,-1.64
2022-12-28T19:00:55.519Z,-1.53
2022-12-28T19:02:06.577Z,-1.43
2022-12-28T19:02:55.716Z,-1.42
2022-12-28T19:03:56.079Z,-1.39
2022-12-28T19:04:55.623Z,-1.39
2022-12-28T19:06:02.153Z,-1.25
2022-12-28T19:06:55.474Z,-1.24
2022-12-28T19:07:55.406Z,-1.22
2022-12-28T19:08:55.414Z,-1.22
2022-12-28T19:09:55.558Z,-1.25
2022-12-28T19:10:55.414Z,-1.17
2022-12-28T19:11:55.397Z,-1.12
2022-12-28T19:12:55.626Z,-1.14
2022-12-28T19:13:55.485Z,-1.18
2022-12-28T19:14:55.452Z,-1.24
2022-12-28T19:15:55.435Z,-1.29
2022-12-28T19:16:55.309Z,-1.36
2022-12-28T19:17:55.639Z,-1.40
2022-12-28T19:18:55.463Z,-1.43
2022-12-28T19:19:55.356Z,-1.50
2022-12-28T19:20:55.270Z,-1.54
2022-12-28T19:21:58.858Z,-1.57
2022-12-28T19:22:55.475Z,-1.60
2022-12-28T19:23:55.225Z,-1.61
2022-12-28T19:24:55.233Z,-1.61
2022-12-28T19:25:55.325Z,-1.60
2022-12-28T19:26:55.484Z,-1.58
2022-12-28T19:27:55.208Z,-1.63
2022-12-28T19:28:55.195Z,-1.63
2022-12-28T19:29:55.226Z,-1.63
2022-12-28T19:30:58.249Z,-1.63
2022-12-28T19:31:55.531Z,-1.60
2022-12-28T19:32:55.152Z,-1.63
2022-12-28T19:33:55.336Z,-1.63
2022-12-28T19:34:55.460Z,-1.64
2022-12-28T19:35:55.097Z,-1.69
2022-12-28T19:36:55.249Z,-1.69
2022-12-28T19:37:55.044Z,-1.69
2022-12-28T19:38:55.069Z,-1.69
2022-12-28T19:39:57.907Z,-1.75
2022-12-28T19:40:55.202Z,-1.75
2022-12-28T19:41:54.982Z,-1.79
2022-12-28T19:42:55.118Z,-1.79
2022-12-28T19:43:55.038Z,-1.76
2022-12-28T19:44:55.023Z,-1.78
2022-12-28T19:45:55.005Z,-1.75
2022-12-28T19:46:55.125Z,-1.69
2022-12-28T19:47:54.905Z,-1.66
2022-12-28T19:48:54.868Z,-1.68
2022-12-28T19:49:54.846Z,-1.68
2022-12-28T19:50:54.912Z,-1.68
2022-12-28T19:51:54.844Z,-1.68
2022-12-28T19:52:56.746Z,-1.66
2022-12-28T19:53:54.900Z,-1.68
2022-12-28T19:54:54.794Z,-1.66
2022-12-28T19:55:54.886Z,-1.61
2022-12-28T19:56:54.805Z,-1.58
2022-12-28T19:57:54.868Z,-1.51
2022-12-28T19:59:01.200Z,-1.51
2022-12-28T19:59:54.785Z,-1.48
2022-12-28T20:00:54.854Z,-1.51
2022-12-28T20:01:55.097Z,-1.50
2022-12-28T20:02:54.840Z,-1.45
2022-12-28T20:03:54.835Z,-1.40
2022-12-28T20:04:54.736Z,-1.39
2022-12-28T20:05:54.738Z,-1.35
2022-12-28T20:06:54.849Z,-1.30
2022-12-28T20:07:54.710Z,-1.27
2022-12-28T20:08:54.653Z,-1.25
2022-12-28T20:09:54.655Z,-1.22
2022-12-28T20:10:54.726Z,-1.18
2022-12-28T20:11:54.657Z,-1.14
2022-12-28T20:12:54.664Z,-1.09
2022-12-28T20:13:54.588Z,-1.06
2022-12-28T20:14:54.634Z,-1.03
2022-12-28T20:15:54.657Z,-1.01
2022-12-28T20:16:54.647Z,-0.99
2022-12-28T20:17:54.714Z,-0.96
2022-12-28T20:18:54.674Z,-0.93
2022-12-28T20:19:54.531Z,-0.87
2022-12-28T20:21:22.348Z,-0.78
2022-12-28T20:21:54.602Z,-0.72
2022-12-28T20:22:54.574Z,-0.67
2022-12-28T20:23:54.495Z,-0.63
2022-12-28T20:24:54.584Z,-0.59
2022-12-28T20:25:54.591Z,-0.57
2022-12-28T20:27:01.126Z,-0.57
2022-12-28T20:27:54.496Z,-0.59
2022-12-28T20:28:54.522Z,-0.54
2022-12-28T20:29:54.494Z,-0.53
2022-12-28T20:30:54.514Z,-0.53
2022-12-28T20:31:54.448Z,-0.48
2022-12-28T20:32:54.794Z,-0.49
2022-12-28T20:33:54.440Z,-0.49
2022-12-28T20:34:54.431Z,-0.45
2022-12-28T20:35:54.357Z,-0.44
2022-12-28T20:36:54.456Z,-0.45
2022-12-28T20:37:54.493Z,-0.44
2022-12-28T20:38:54.732Z,-0.46
2022-12-28T20:39:54.512Z,-0.44
2022-12-28T20:40:54.419Z,-0.46
2022-12-28T20:41:54.298Z,-0.48
2022-12-28T20:42:54.304Z,-0.48
2022-12-28T20:43:54.484Z,-0.46
2022-12-28T20:44:54.316Z,-0.39
2022-12-28T20:45:54.550Z,-0.39
2022-12-28T20:46:54.417Z,-0.39
2022-12-28T20:47:54.246Z,-0.39
2022-12-28T20:48:54.426Z,-0.41
2022-12-28T20:49:54.244Z,-0.41
2022-12-28T20:50:54.152Z,-0.42
2022-12-28T20:51:54.286Z,-0.44
2022-12-28T20:52:54.065Z,-0.46
2022-12-28T20:53:54.064Z,-0.45
2022-12-28T20:54:54.602Z,-0.48
2022-12-28T20:55:54.395Z,-0.46
2022-12-28T20:56:55.966Z,-0.45
2022-12-28T20:57:54.043Z,-0.44
2022-12-28T20:58:54.067Z,-0.45
2022-12-28T20:59:54.566Z,-0.48
2022-12-28T21:00:54.039Z,-0.49
2022-12-28T21:01:54.176Z,-0.49
2022-12-28T21:02:53.976Z,-0.49
2022-12-28T21:03:53.986Z,-0.49
2022-12-28T21:04:53.995Z,-0.51
2022-12-28T21:05:53.987Z,-0.48
2022-12-28T21:06:53.995Z,-0.46
2022-12-28T21:07:54.274Z,-0.48
2022-12-28T21:08:53.867Z,-0.49
2022-12-28T21:09:53.920Z,-0.51
2022-12-28T21:10:53.926Z,-0.49
2022-12-28T21:11:53.986Z,-0.56
2022-12-28T21:12:53.946Z,-0.57
2022-12-28T21:13:53.879Z,-0.60
2022-12-28T21:14:53.873Z,-0.64
2022-12-28T21:15:53.870Z,-0.72
2022-12-28T21:16:54.060Z,-0.75
2022-12-28T21:17:53.742Z,-0.77
2022-12-28T21:18:53.768Z,-0.81
2022-12-28T21:19:53.748Z,-0.81
2022-12-28T21:20:53.880Z,-0.84
2022-12-28T21:21:54.023Z,-0.85
2022-12-28T21:22:53.675Z,-0.85
2022-12-28T21:23:53.702Z,-0.85
2022-12-28T21:24:53.864Z,-0.85
2022-12-28T21:25:53.737Z,-0.85
2022-12-28T21:26:53.674Z,-0.87
2022-12-28T21:27:53.705Z,-0.89
2022-12-28T21:28:53.889Z,-0.94
2022-12-28T21:29:53.729Z,-0.96
2022-12-28T21:30:53.615Z,-0.93
2022-12-28T21:31:53.717Z,-0.91
2022-12-28T21:32:53.644Z,-0.93
2022-12-28T21:33:53.555Z,-0.97
2022-12-28T21:34:53.545Z,-1.01
2022-12-28T21:35:53.699Z,-1.00
2022-12-28T21:36:53.544Z,-1.03
2022-12-28T21:37:53.493Z,-1.03
2022-12-28T21:38:53.509Z,-1.03
2022-12-28T21:39:53.693Z,-1.03
2022-12-28T21:40:53.638Z,-0.99
2022-12-28T21:41:54.549Z,-0.97
2022-12-28T21:42:55.632Z,-0.94
2022-12-28T21:43:53.387Z,-0.93
2022-12-28T21:44:53.429Z,-0.93
2022-12-28T21:45:58.471Z,-0.96
2022-12-28T21:46:53.776Z,-0.96
2022-12-28T21:47:55.415Z,-0.96
2022-12-28T21:48:53.612Z,-0.97
2022-12-28T21:49:53.582Z,-0.99
2022-12-28T21:50:53.500Z,-1.00
2022-12-28T21:51:53.476Z,-1.01
2022-12-28T21:52:53.324Z,-1.04
2022-12-28T21:53:53.466Z,-1.06
2022-12-28T21:54:53.465Z,-1.06
2022-12-28T21:55:54.860Z,-1.04
2022-12-28T21:56:53.301Z,-0.94
2022-12-28T21:57:54.553Z,-0.91
2022-12-28T21:58:55.772Z,-0.93
2022-12-28T21:59:53.725Z,-0.97
2022-12-28T22:00:53.415Z,-1.01
2022-12-28T22:01:54.325Z,-1.01
2022-12-28T22:02:53.409Z,-1.01
2022-12-28T22:03:53.933Z,-1.03
2022-12-28T22:04:58.462Z,-1.00
2022-12-28T22:05:53.854Z,-1.01
2022-12-28T22:06:53.211Z,-1.04
2022-12-28T22:07:53.715Z,-1.07
2022-12-28T22:08:53.305Z,-1.11
2022-12-28T22:09:53.150Z,-1.14
2022-12-28T22:10:56.259Z,-1.17
2022-12-28T22:11:53.095Z,-1.22
2022-12-28T22:12:53.054Z,-1.25
2022-12-28T22:13:53.104Z,-1.29
2022-12-28T22:14:53.037Z,-1.32
2022-12-28T22:15:53.085Z,-1.30
2022-12-28T22:16:53.267Z,-1.36
2022-12-28T22:17:53.054Z,-1.40
2022-12-28T22:19:02.231Z,-1.46
2022-12-28T22:19:52.944Z,-1.51
2022-12-28T22:20:53.204Z,-1.51
2022-12-28T22:21:53.097Z,-1.43
2022-12-28T22:22:52.979Z,-1.43
2022-12-28T22:23:53.066Z,-1.46
2022-12-28T22:24:52.995Z,-1.50
2022-12-28T22:25:53.090Z,-1.57
2022-12-28T22:26:52.895Z,-1.63
2022-12-28T22:27:53.108Z,-1.56
2022-12-28T22:28:52.914Z,-1.53
2022-12-28T22:29:53.064Z,-1.51
2022-12-28T22:30:52.925Z,-1.50
2022-12-28T22:31:52.892Z,-1.53
2022-12-28T22:32:52.906Z,-1.60
2022-12-28T22:33:53.496Z,-1.68
2022-12-28T22:34:52.828Z,-1.72
2022-12-28T22:35:52.761Z,-1.71
2022-12-28T22:36:52.755Z,-1.68
2022-12-28T22:37:52.722Z,-1.71
2022-12-28T22:38:52.709Z,-1.74
2022-12-28T22:39:52.793Z,-1.75
2022-12-28T22:40:52.714Z,-1.79
2022-12-28T22:41:52.727Z,-1.82
2022-12-28T22:42:52.644Z,-1.82
2022-12-28T22:43:52.768Z,-1.86
2022-12-28T22:44:52.725Z,-1.90
2022-12-28T22:45:52.811Z,-1.96
2022-12-28T22:46:52.644Z,-2.00
2022-12-28T22:47:52.733Z,-2.04
2022-12-28T22:48:52.608Z,-2.00
2022-12-28T22:49:52.655Z,-2.02
2022-12-28T22:50:52.599Z,-2.00
2022-12-28T22:51:52.575Z,-1.96
2022-12-28T22:52:52.555Z,-1.96
2022-12-28T22:53:52.728Z,-1.94
2022-12-28T22:54:52.574Z,-1.93
2022-12-28T22:55:52.552Z,-1.92
2022-12-28T22:56:52.555Z,-1.97
2022-12-28T22:57:52.483Z,-1.93
2022-12-28T22:58:52.478Z,-1.93
2022-12-28T22:59:52.468Z,-1.92
2022-12-28T23:00:52.574Z,-1.89
2022-12-28T23:01:52.645Z,-1.86
2022-12-28T23:02:52.882Z,-1.84
2022-12-28T23:03:52.444Z,-1.82
2022-12-28T23:04:52.608Z,-1.81
2022-12-28T23:05:52.738Z,-1.81
2022-12-28T23:06:52.357Z,-1.84
2022-12-28T23:07:52.377Z,-1.84
2022-12-28T23:08:52.332Z,-1.87
2022-12-28T23:09:52.331Z,-1.92
2022-12-28T23:10:52.385Z,-1.87
2022-12-28T23:11:52.420Z,-1.90
2022-12-28T23:12:52.292Z,-1.87
2022-12-28T23:13:52.293Z,-1.87
2022-12-28T23:14:52.256Z,-1.86
2022-12-28T23:15:52.224Z,-1.90
2022-12-28T23:16:52.417Z,-1.90
2022-12-28T23:17:52.413Z,-1.92
2022-12-28T23:18:52.290Z,-1.96
2022-12-28T23:19:52.433Z,-1.96
2022-12-28T23:20:52.279Z,-2.00
2022-12-28T23:21:52.258Z,-2.00
2022-12-28T23:22:52.285Z,-2.05
2022-12-28T23:23:52.164Z,-2.07
2022-12-28T23:24:52.135Z,-2.08
2022-12-28T23:25:52.144Z,-2.11
2022-12-28T23:26:52.185Z,-2.14
2022-12-28T23:27:52.104Z,-2.15
2022-12-28T23:28:52.278Z,-2.14
2022-12-28T23:29:52.135Z,-2.18
2022-12-28T23:30:52.365Z,-2.20
2022-12-28T23:31:52.095Z,-2.17
2022-12-28T23:32:52.368Z,-2.15
2022-12-28T23:33:52.018Z,-2.14
2022-12-28T23:34:52.094Z,-2.13
2022-12-28T23:35:52.026Z,-2.14
2022-12-28T23:36:51.955Z,-2.13
2022-12-28T23:37:52.166Z,-2.15
2022-12-28T23:38:51.995Z,-2.15
2022-12-28T23:39:52.104Z,-2.15
2022-12-28T23:40:51.955Z,-2.14
2022-12-28T23:41:51.928Z,-2.14
2022-12-28T23:42:51.941Z,-2.05
2022-12-28T23:43:52.261Z,-2.04
2022-12-28T23:44:51.967Z,-2.02
2022-12-28T23:45:51.926Z,-2.04
2022-12-28T23:46:58.266Z,-2.00
2022-12-28T23:47:51.866Z,-1.97
2022-12-28T23:48:51.876Z,-1.94
2022-12-28T23:49:51.907Z,-1.96
2022-12-28T23:50:51.948Z,-2.00
2022-12-28T23:51:51.778Z,-2.02
2022-12-28T23:52:51.806Z,-2.10
2022-12-28T23:53:51.774Z,-2.13
2022-12-28T23:54:52.039Z,-2.15
2022-12-28T23:55:51.778Z,-2.18
2022-12-28T23:56:51.965Z,-2.23
2022-12-28T23:57:51.838Z,-2.25
2022-12-28T23:58:51.949Z,-2.28
2022-12-28T23:59:51.725Z,-2.28
